Time;durP1;ratioP1;P1;durP2;ratioP2;P2;SDS_P1;SDS_P2;PMS_P1;PMS_P2;Temp;Humidity;BMP_temperature;BMP_pressure;BME280_temperature;BME280_humidity;BME280_pressure;Samples;Min_cycle;Max_cycle;Signal;HPM_P1;HPM_P2
2022/03/12 00:00:00;;;;;;;27.23;13.27;;;;;;;-3.36;86.70;101358.81;5011335;28;20096;-21
2022/03/12 00:02:32;;;;;;;19.98;10.75;;;;;;;-3.31;86.76;101373.25;5011014;28;20770;-29
2022/03/12 00:04:58;;;;;;;24.08;13.38;;;;;;;-3.65;86.98;101351.88;5011029;28;20502;-22
2022/03/12 00:07:26;;;;;;;32.25;15.95;;;;;;;-3.37;86.64;101378.84;4994830;28;20071;-21
2022/03/12 00:09:52;;;;;;;39.22;17.25;;;;;;;-3.12;85.91;101364.25;5028534;28;20036;-22
2022/03/12 00:12:19;;;;;;;33.05;15.93;;;;;;;-3.03;85.32;101353.19;4978036;28;20072;-21
2022/03/12 00:14:45;;;;;;;42.90;17.98;;;;;;;-2.96;84.89;101371.91;4994626;28;20037;-20
2022/03/12 00:17:13;;;;;;;20.08;11.10;;;;;;;-2.80;85.34;101366.53;5028557;28;20045;-21
2022/03/12 00:19:40;;;;;;;37.90;18.38;;;;;;;-2.74;84.64;101368.72;4994175;28;20172;-21
2022/03/12 00:22:06;;;;;;;35.40;16.17;;;;;;;-2.73;84.01;101365.19;5010556;28;20521;-21
2022/03/12 00:24:34;;;;;;;12.43;6.75;;;;;;;-2.87;84.17;101356.47;4994542;28;20030;-20
2022/03/12 00:27:00;;;;;;;37.75;16.50;;;;;;;-2.59;83.89;101357.28;5028109;28;20717;-21
2022/03/12 00:29:26;;;;;;;20.38;9.52;;;;;;;-2.58;83.53;101340.66;5010597;28;20034;-21
2022/03/12 00:31:53;;;;;;;15.05;7.40;;;;;;;-2.58;83.17;101360.72;4994001;28;20037;-21
2022/03/12 00:34:19;;;;;;;23.23;12.93;;;;;;;-2.50;82.79;101351.44;5027855;28;20033;-21
2022/03/12 00:36:44;;;;;;;25.42;11.15;;;;;;;-2.67;83.35;101351.75;5010402;28;20033;-21
2022/03/12 00:39:10;;;;;;;22.23;11.35;;;;;;;-2.61;83.10;101353.13;5009773;28;20104;-22
2022/03/12 00:41:38;;;;;;;16.98;8.80;;;;;;;-2.67;82.38;101341.28;4994010;28;20076;-20
2022/03/12 00:44:04;;;;;;;24.90;14.25;;;;;;;-2.44;81.89;101348.41;5010450;28;20041;-21
2022/03/12 00:46:30;;;;;;;23.27;11.55;;;;;;;-2.57;82.03;101338.91;5010441;28;20501;-21
2022/03/12 00:48:55;;;;;;;12.98;6.80;;;;;;;-2.85;82.76;101323.28;4993368;28;20025;-21
2022/03/12 00:51:20;;;;;;;14.23;6.75;;;;;;;-2.93;82.88;101346.44;4993964;28;20452;-21
2022/03/12 00:53:46;;;;;;;14.07;7.43;;;;;;;-2.88;83.25;101344.38;4993874;28;20033;-21
2022/03/12 00:56:11;;;;;;;12.52;6.82;;;;;;;-2.68;82.36;101334.38;5010045;28;20034;-21
2022/03/12 00:58:37;;;;;;;12.45;6.72;;;;;;;-2.78;81.85;101341.97;5009982;28;20508;-21
2022/03/12 01:01:04;;;;;;;13.55;7.40;;;;;;;-3.00;83.42;101336.50;5009800;28;20146;-21
2022/03/12 01:03:29;;;;;;;21.63;12.88;;;;;;;-2.86;82.74;101332.06;5009943;28;20032;-21
2022/03/12 01:06:00;;;;;;;37.08;24.20;;;;;;;-2.92;81.31;101319.41;5027642;28;20037;-21
2022/03/12 01:08:26;;;;;;;26.88;16.02;;;;;;;-2.64;80.82;101326.25;4993834;28;20021;-21
2022/03/12 01:10:52;;;;;;;23.58;11.98;;;;;;;-2.69;80.49;101317.88;4993517;28;20036;-20
2022/03/12 01:13:18;;;;;;;17.58;8.90;;;;;;;-2.33;79.17;101332.03;5027410;28;20056;-21
2022/03/12 01:15:43;;;;;;;14.70;7.72;;;;;;;-2.11;77.43;101323.53;5009745;28;20420;-21
2022/03/12 01:18:11;;;;;;;14.88;7.88;;;;;;;-2.23;77.42;101322.63;5009905;28;20034;-21
2022/03/12 01:20:36;;;;;;;15.05;7.95;;;;;;;-2.39;78.13;101308.09;4993784;28;20099;-21
2022/03/12 01:23:03;;;;;;;16.83;8.75;;;;;;;-2.21;78.29;101317.28;5010829;28;20459;-22
2022/03/12 01:25:28;;;;;;;20.23;10.82;;;;;;;-2.13;77.68;101325.44;5031664;28;20030;-21
2022/03/12 01:27:54;;;;;;;24.33;13.13;;;;;;;-1.90;76.52;101304.69;5031853;28;20095;-21
2022/03/12 01:30:26;;;;;;;17.80;9.95;;;;;;;-1.85;76.07;101326.13;4997484;28;20062;-21
2022/03/12 01:32:52;;;;;;;17.83;9.00;;;;;;;-2.31;76.02;101300.56;4997497;28;20057;-20
2022/03/12 01:35:17;;;;;;;15.95;9.15;;;;;;;-1.60;76.24;101332.25;5014092;28;20117;-21
2022/03/12 01:37:43;;;;;;;17.77;10.38;;;;;;;-1.84;75.65;101325.19;4997132;28;20037;-21
2022/03/12 01:40:09;;;;;;;14.77;8.35;;;;;;;-2.38;76.93;101325.44;5031244;28;20409;-21
2022/03/12 01:42:34;;;;;;;13.23;7.32;;;;;;;-2.05;76.77;101317.88;5013143;28;20041;-21
2022/03/12 01:45:00;;;;;;;13.02;8.00;;;;;;;-1.93;76.07;101326.66;5013085;28;20029;-22
2022/03/12 01:47:25;;;;;;;20.98;9.65;;;;;;;-2.28;77.37;101331.72;5013245;28;20482;-20
2022/03/12 01:49:52;;;;;;;15.50;8.57;;;;;;;-2.07;77.67;101330.22;5013305;28;20029;-21
2022/03/12 01:52:17;;;;;;;15.63;8.40;;;;;;;-1.74;75.86;101322.75;4997042;28;20032;-21
2022/03/12 01:54:43;;;;;;;15.82;8.45;;;;;;;-1.29;74.90;101326.53;4980525;28;20456;-21
2022/03/12 01:57:09;;;;;;;18.70;8.80;;;;;;;-1.56;74.24;101320.63;4996641;28;20041;-21
2022/03/12 01:59:35;;;;;;;14.52;7.78;;;;;;;-1.32;75.23;101311.03;4996639;28;20032;-21
2022/03/12 02:02:02;;;;;;;14.38;7.70;;;;;;;-1.15;72.76;101322.03;5013544;28;20573;-22
2022/03/12 02:04:29;;;;;;;13.98;7.88;;;;;;;-1.32;71.97;101320.66;5013094;28;20060;-22
2022/03/12 02:06:58;;;;;;;15.93;8.10;;;;;;;-1.17;71.27;101313.47;4980900;28;20044;-21
2022/03/12 02:09:23;;;;;;;18.17;9.25;;;;;;;-1.22;72.36;101321.66;5013292;28;20018;-21
2022/03/12 02:11:49;;;;;;;16.50;8.85;;;;;;;-1.33;73.36;101313.75;5013032;28;20052;-21
2022/03/12 02:14:16;;;;;;;17.65;9.18;;;;;;;-1.49;73.27;101301.78;5012558;28;20085;-21
2022/03/12 02:16:49;;;;;;;18.67;9.20;;;;;;;-1.43;72.14;101316.19;5012902;28;20445;-20
2022/03/12 02:19:17;;;;;;;18.25;9.13;;;;;;;-1.15;71.92;101311.56;4996669;28;20030;-21
2022/03/12 02:21:53;;;;;;;18.33;10.02;;;;;;;-1.16;71.21;101309.91;4996192;28;20109;-20
2022/03/12 02:24:20;;;;;;;20.35;8.75;;;;;;;-1.11;70.70;101303.38;5012740;28;20061;-21
2022/03/12 02:26:46;;;;;;;16.45;9.27;;;;;;;-1.07;70.68;101304.81;4996264;28;20068;-21
2022/03/12 02:29:21;;;;;;;17.55;9.27;;;;;;;-1.13;69.94;101293.97;4979963;28;20026;-21
2022/03/12 02:31:57;;;;;;;21.98;9.45;;;;;;;-1.35;71.79;101302.53;4996984;28;20026;-20
2022/03/12 02:34:32;;;;;;;19.88;9.15;;;;;;;-0.94;69.92;101325.72;5012025;28;20057;-21
2022/03/12 02:36:57;;;;;;;21.63;10.73;;;;;;;-1.09;70.50;101318.97;5012509;28;20026;-20
2022/03/12 02:39:24;;;;;;;19.38;9.15;;;;;;;-1.23;71.65;101325.22;4995849;28;20036;-21
2022/03/12 02:41:49;;;;;;;22.05;9.35;;;;;;;-0.99;71.22;101332.25;5012554;28;20029;-20
2022/03/12 02:44:21;;;;;;;21.02;9.52;;;;;;;-1.10;71.48;101314.72;5012197;28;20041;-21
2022/03/12 02:47:11;;;;;;;19.75;10.45;;;;;;;-0.92;71.50;101331.69;4996338;28;20033;-21
2022/03/12 02:49:37;;;;;;;21.13;11.00;;;;;;;-1.08;70.64;101333.75;4995959;28;20040;-21
2022/03/12 02:52:03;;;;;;;23.40;11.10;;;;;;;-1.01;71.07;101329.72;5029967;28;20145;-22
2022/03/12 02:54:29;;;;;;;20.00;9.10;;;;;;;-1.34;71.59;101331.22;5012411;28;20057;-22
2022/03/12 02:56:55;;;;;;;19.33;9.18;;;;;;;-1.37;72.53;101323.59;5011865;28;20424;-21
2022/03/12 02:59:20;;;;;;;25.23;10.77;;;;;;;-1.36;71.11;101317.41;5011941;28;20119;-20
2022/03/12 03:01:46;;;;;;;23.40;10.57;;;;;;;-1.48;72.19;101334.00;5012072;28;20025;-21
2022/03/12 03:04:12;;;;;;;20.85;10.70;;;;;;;-1.29;72.21;101330.91;5029961;28;20033;-20
2022/03/12 03:06:38;;;;;;;22.98;10.38;;;;;;;-1.17;71.25;101343.09;5011661;28;20029;-20
2022/03/12 03:09:04;;;;;;;23.63;11.70;;;;;;;-1.22;70.99;101338.19;5011960;28;20057;-21
2022/03/12 03:11:35;;;;;;;24.35;12.45;;;;;;;-1.18;70.93;101335.38;5011887;28;20104;-21
2022/03/12 03:14:00;;;;;;;27.85;13.27;;;;;;;-1.24;71.61;101334.84;5011561;28;20294;-21
2022/03/12 03:16:28;;;;;;;24.90;11.82;;;;;;;-1.16;70.53;101317.78;5029612;28;20500;-21
2022/03/12 03:18:53;;;;;;;21.40;11.68;;;;;;;-1.40;70.92;101338.69;5029050;28;20059;-20
2022/03/12 03:21:23;;;;;;;57.72;28.50;;;;;;;-1.24;71.29;101342.72;5029378;28;20417;-20
2022/03/12 03:23:49;;;;;;;29.00;13.05;;;;;;;-1.24;70.90;101334.84;5011824;28;20033;-21
2022/03/12 03:26:19;;;;;;;37.85;17.55;;;;;;;-1.39;71.52;101320.25;5011623;28;20460;-21
2022/03/12 03:28:44;;;;;;;29.73;13.27;;;;;;;-1.08;69.78;101339.00;5011413;28;20516;-21
2022/03/12 03:31:10;;;;;;;26.67;12.68;;;;;;;-1.38;70.05;101327.16;4995107;28;20037;-22
2022/03/12 03:33:36;;;;;;;25.00;11.70;;;;;;;-1.03;68.39;101347.34;5029126;28;20041;-21
2022/03/12 03:36:01;;;;;;;29.60;12.50;;;;;;;-0.99;66.61;101340.91;5011722;28;20036;-21
2022/03/12 03:38:27;;;;;;;28.58;13.15;;;;;;;-1.37;68.61;101349.75;5011495;28;20033;-21
2022/03/12 03:40:52;;;;;;;34.15;13.82;;;;;;;-0.95;67.67;101347.59;5011504;28;20025;-21
2022/03/12 03:43:21;;;;;;;35.50;15.75;;;;;;;-1.17;67.91;101316.09;5011275;28;20460;-27
2022/03/12 03:45:48;;;;;;;31.15;14.00;;;;;;;-0.78;68.22;101330.63;4994419;28;20505;-21
2022/03/12 03:48:19;;;;;;;29.17;13.07;;;;;;;-0.97;68.60;101340.81;5011150;28;20094;-21
2022/03/12 03:50:45;;;;;;;29.55;14.65;;;;;;;-0.82;68.89;101351.00;4978784;28;20026;-20
2022/03/12 03:53:13;;;;;;;29.40;13.05;;;;;;;-1.12;68.22;101342.78;4994769;28;20071;-20
2022/03/12 03:55:40;;;;;;;31.20;13.50;;;;;;;-1.10;69.43;101359.22;5011185;28;20516;-21
2022/03/12 03:58:05;;;;;;;28.85;14.10;;;;;;;-1.21;69.52;101333.78;5011431;28;20052;-21
2022/03/12 04:00:31;;;;;;;30.23;13.98;;;;;;;-1.14;70.16;101344.69;4978269;28;20512;-20
2022/03/12 04:03:04;;;;;;;31.20;14.93;;;;;;;-0.90;69.28;101361.22;4994855;28;20030;-20
2022/03/12 04:05:38;;;;;;;42.75;19.48;;;;;;;-1.41;70.40;101348.31;5012195;28;20104;-20
2022/03/12 04:08:07;;;;;;;49.67;21.98;;;;;;;-1.69;71.93;101370.38;5011337;28;20084;-21
2022/03/12 04:10:34;;;;;;;49.00;20.52;;;;;;;-1.30;70.71;101366.69;5011035;28;20029;-20
2022/03/12 04:13:00;;;;;;;45.35;17.33;;;;;;;-1.19;69.14;101365.09;5028328;28;20049;-21
2022/03/12 04:15:26;;;;;;;27.63;12.95;;;;;;;-1.37;68.04;101362.84;5028565;28;20079;-21
2022/03/12 04:17:52;;;;;;;32.40;15.57;;;;;;;-1.65;67.78;101372.66;4994188;28;20059;-20
2022/03/12 04:20:21;;;;;;;39.90;17.90;;;;;;;-2.15;69.15;101357.84;5010686;28;20034;-21
2022/03/12 04:22:47;;;;;;;39.47;18.05;;;;;;;-2.10;69.32;101353.97;4994218;28;20025;-21
2022/03/12 04:25:13;;;;;;;32.97;15.52;;;;;;;-2.18;70.29;101377.19;5028607;28;20028;-21
2022/03/12 04:27:42;;;;;;;28.00;13.50;;;;;;;-2.26;71.15;101375.09;5010364;28;20040;-20
2022/03/12 04:30:09;;;;;;;24.73;11.43;;;;;;;-2.34;71.60;101368.72;4994552;28;20116;-21
2022/03/12 04:32:34;;;;;;;20.27;11.18;;;;;;;-2.64;71.55;101335.84;4994165;28;20033;-21
2022/03/12 04:35:00;;;;;;;19.92;10.27;;;;;;;-2.55;71.68;101356.16;5010235;28;20398;-20
2022/03/12 04:37:25;;;;;;;22.83;10.15;;;;;;;-2.40;70.70;101366.50;5010325;28;20022;-20
2022/03/12 04:39:51;;;;;;;23.10;10.32;;;;;;;-2.50;71.70;101377.56;5010310;28;20087;-20
2022/03/12 04:42:21;;;;;;;20.00;10.13;;;;;;;-2.02;68.84;101374.38;5010197;28;20417;-21
2022/03/12 04:44:47;;;;;;;21.15;10.52;;;;;;;-2.62;69.86;101380.97;5010562;28;20076;-21
2022/03/12 04:47:13;;;;;;;25.25;11.30;;;;;;;-2.21;70.12;101385.22;5028068;28;20044;-21
2022/03/12 04:49:39;;;;;;;20.80;10.82;;;;;;;-2.47;68.84;101374.75;4994019;28;20037;-21
2022/03/12 04:52:05;;;;;;;27.58;12.80;;;;;;;-2.45;69.56;101383.34;5027961;28;20521;-21
2022/03/12 04:54:31;;;;;;;21.52;11.35;;;;;;;-2.47;69.58;101382.59;4977580;28;20030;-22
2022/03/12 04:56:57;;;;;;;19.98;10.52;;;;;;;-2.65;70.41;101370.75;4993625;28;20040;-20
2022/03/12 04:59:22;;;;;;;27.77;13.68;;;;;;;-2.45;70.30;101388.56;4994067;28;20033;-21
2022/03/12 05:01:48;;;;;;;23.45;11.68;;;;;;;-2.24;69.41;101361.94;5010128;28;20599;-21
2022/03/12 05:04:13;;;;;;;25.73;10.77;;;;;;;-1.91;69.27;101390.16;5010132;28;20033;-21
2022/03/12 05:06:39;;;;;;;22.35;10.73;;;;;;;-2.40;67.29;101369.13;5010284;28;20041;-21
2022/03/12 05:09:05;;;;;;;20.67;11.75;;;;;;;-2.12;67.33;101389.84;4993272;28;20032;-21
2022/03/12 05:11:34;;;;;;;21.35;10.50;;;;;;;-2.13;68.13;101382.94;4992800;28;20128;-22
2022/03/12 05:14:00;;;;;;;20.67;10.43;;;;;;;-2.22;67.49;101386.19;4993262;28;20544;-21
2022/03/12 05:16:27;;;;;;;20.90;10.20;;;;;;;-2.10;68.69;101392.34;4993306;28;20033;-21
2022/03/12 05:18:53;;;;;;;17.98;9.43;;;;;;;-1.71;67.28;101390.56;5009669;28;20033;-20
2022/03/12 05:21:19;;;;;;;20.55;11.02;;;;;;;-1.99;67.91;101386.41;5027281;28;20049;-21
2022/03/12 05:23:44;;;;;;;21.10;10.57;;;;;;;-2.13;67.88;101382.09;4993286;28;20037;-21
2022/03/12 05:26:09;;;;;;;21.42;11.27;;;;;;;-2.18;68.51;101390.25;4992926;28;20033;-21
2022/03/12 05:28:39;;;;;;;26.40;11.98;;;;;;;-2.28;68.43;101391.81;5027733;28;20112;-21
2022/03/12 05:31:05;;;;;;;20.63;10.45;;;;;;;-2.16;68.07;101392.78;5009497;28;20029;-21
2022/03/12 05:33:30;;;;;;;35.47;15.63;;;;;;;-1.80;67.20;101399.03;5027739;28;20208;-21
2022/03/12 05:35:56;;;;;;;22.67;11.18;;;;;;;-1.76;65.50;101396.09;4993922;28;20453;-21
2022/03/12 05:38:23;;;;;;;20.20;10.23;;;;;;;-1.47;65.82;101406.31;5009554;28;20055;-21
2022/03/12 05:40:49;;;;;;;20.85;10.95;;;;;;;-1.29;65.63;101418.13;5026979;28;20037;-21
2022/03/12 05:43:15;;;;;;;22.38;11.82;;;;;;;-1.44;65.84;101398.25;4993260;28;20132;-21
2022/03/12 05:45:52;;;;;;;29.92;15.30;;;;;;;-1.57;66.64;101411.38;5009557;28;20116;-20
2022/03/12 05:48:19;;;;;;;35.75;16.98;;;;;;;-1.63;66.83;101417.03;5027090;28;20065;-21
2022/03/12 05:50:45;;;;;;;40.10;21.63;;;;;;;-1.40;66.07;101423.25;4993426;28;20026;-20
2022/03/12 05:53:11;;;;;;;48.45;22.38;;;;;;;-1.58;66.81;101420.13;4976523;28;20628;-21
2022/03/12 05:55:38;;;;;;;30.13;15.23;;;;;;;-1.40;66.38;101428.50;5009828;28;20163;-21
2022/03/12 05:58:04;;;;;;;42.42;19.35;;;;;;;-1.65;67.15;101422.34;5009580;28;20490;-21
2022/03/12 06:00:31;;;;;;;34.72;16.73;;;;;;;-1.35;67.33;101430.78;4976835;28;20037;-20
2022/03/12 06:02:58;;;;;;;33.00;17.25;;;;;;;-1.16;65.58;101425.09;5026987;28;20095;-21
2022/03/12 06:05:24;;;;;;;40.00;22.63;;;;;;;-0.94;65.27;101437.47;5009459;28;20079;-22
2022/03/12 06:07:50;;;;;;;33.92;18.90;;;;;;;-1.51;65.92;101423.16;5009130;28;20405;-21
2022/03/12 06:10:17;;;;;;;29.50;16.33;;;;;;;-1.07;65.24;101440.13;5012311;28;20036;-21
2022/03/12 06:12:43;;;;;;;19.25;11.80;;;;;;;-1.52;65.18;101429.34;5030523;28;20075;-20
2022/03/12 06:15:13;;;;;;;17.17;8.48;;;;;;;-1.49;65.34;101413.41;4996451;28;20092;-21
2022/03/12 06:17:39;;;;;;;17.27;7.47;;;;;;;-1.83;65.76;101441.94;5013288;28;20041;-21
2022/03/12 06:20:10;;;;;;;13.60;7.18;;;;;;;-1.74;66.16;101438.66;4996657;28;20390;-21
2022/03/12 06:22:36;;;;;;;15.07;8.52;;;;;;;-1.74;66.40;101446.50;5013510;28;20482;-21
2022/03/12 06:25:02;;;;;;;30.05;14.25;;;;;;;-1.84;66.63;101455.94;5012817;28;20703;-21
2022/03/12 06:27:27;;;;;;;22.77;13.00;;;;;;;-1.68;66.47;101453.94;5012657;28;20036;-20
2022/03/12 06:29:53;;;;;;;19.20;10.77;;;;;;;-1.96;67.67;101457.63;5012626;28;20029;-21
2022/03/12 06:32:18;;;;;;;14.40;7.85;;;;;;;-1.80;67.40;101462.63;5012419;28;20489;-21
2022/03/12 06:34:45;;;;;;;15.85;8.50;;;;;;;-1.58;67.42;101458.56;4995748;28;20040;-20
2022/03/12 06:37:10;;;;;;;21.85;10.13;;;;;;;-1.50;67.99;101459.69;5012113;28;20040;-21
2022/03/12 06:39:36;;;;;;;26.10;11.45;;;;;;;-1.64;67.81;101465.88;5012415;28;20030;-21
2022/03/12 06:42:02;;;;;;;29.23;11.50;;;;;;;-1.58;67.62;101482.94;4996064;28;20183;-21
2022/03/12 06:44:32;;;;;;;26.55;10.63;;;;;;;-1.69;67.51;101475.81;5012252;28;20034;-21
2022/03/12 06:46:58;;;;;;;27.58;10.38;;;;;;;-1.35;66.47;101467.41;5012527;28;20183;-20
2022/03/12 06:49:24;;;;;;;40.53;13.48;;;;;;;-1.45;66.94;101457.59;5012152;28;20083;-21
2022/03/12 06:51:49;;;;;;;40.08;13.25;;;;;;;-1.17;63.70;101481.00;4996070;28;20050;-21
2022/03/12 06:54:15;;;;;;;36.53;11.95;;;;;;;-0.70;59.25;101495.13;5030133;28;20037;-21
2022/03/12 06:56:40;;;;;;;40.92;16.35;;;;;;;-0.47;58.14;101502.16;4996099;28;20602;-21
2022/03/12 06:59:06;;;;;;;21.60;10.88;;;;;;;-0.69;57.52;101491.56;5011980;28;20036;-21
2022/03/12 07:01:32;;;;;;;24.40;10.65;;;;;;;-0.29;55.72;101504.38;5012062;28;20037;-21
2022/03/12 07:03:57;;;;;;;44.78;23.58;;;;;;;-0.07;55.70;101493.97;5029803;28;20567;-22
2022/03/12 07:06:23;;;;;;;21.15;11.98;;;;;;;-0.06;54.28;101498.28;5012004;28;20725;-21
2022/03/12 07:08:49;;;;;;;19.15;9.52;;;;;;;0.19;54.55;101493.81;5011659;28;20026;-20
2022/03/12 07:11:16;;;;;;;13.38;7.57;;;;;;;-0.01;53.32;101513.66;5029513;28;20029;-20
2022/03/12 07:13:42;;;;;;;13.82;6.82;;;;;;;-0.05;55.38;101499.94;5008079;28;20072;-21
2022/03/12 07:16:08;;;;;;;14.20;7.00;;;;;;;0.18;54.31;101500.84;5008165;28;20030;-21
2022/03/12 07:18:33;;;;;;;19.27;9.50;;;;;;;0.32;54.60;101497.16;5007967;28;20033;-21
2022/03/12 07:20:59;;;;;;;21.90;10.32;;;;;;;0.31;55.28;101502.53;5008058;28;20036;-21
2022/03/12 07:23:24;;;;;;;20.92;11.27;;;;;;;0.12;57.00;101503.06;4991969;28;20037;-20
2022/03/12 07:25:52;;;;;;;30.75;16.98;;;;;;;0.03;58.02;101509.03;5009811;28;20034;-21
2022/03/12 07:28:19;;;;;;;19.42;14.23;;;;;;;0.58;55.50;101494.34;5009516;28;20033;-21
2022/03/12 07:30:44;;;;;;;14.48;8.15;;;;;;;0.22;56.03;101511.91;4991965;28;20038;-20
2022/03/12 07:33:10;;;;;;;15.93;7.57;;;;;;;0.26;56.91;101484.50;5007577;28;20116;-21
2022/03/12 07:35:36;;;;;;;37.40;17.63;;;;;;;1.69;66.19;101514.47;5007885;28;20041;-21
2022/03/12 07:38:02;;;;;;;36.45;17.65;;;;;;;3.86;54.18;101528.28;4991698;28;20038;-21
2022/03/12 07:40:27;;;;;;;14.40;8.75;;;;;;;2.24;53.05;101516.94;5009630;28;20517;-21
2022/03/12 07:42:53;;;;;;;14.35;7.28;;;;;;;1.84;53.71;101526.38;5008979;28;20048;-21
2022/03/12 07:45:19;;;;;;;40.63;20.88;;;;;;;3.90;64.77;101521.75;5009056;28;20029;-20
2022/03/12 07:47:44;;;;;;;30.48;16.77;;;;;;;2.84;56.45;101514.47;5008856;28;20030;-21
2022/03/12 07:50:10;;;;;;;37.85;19.20;;;;;;;2.96;52.96;101534.50;4991975;28;20026;-22
2022/03/12 07:52:35;;;;;;;20.50;13.15;;;;;;;3.47;53.06;101528.25;5007858;28;20149;-21
2022/03/12 07:55:02;;;;;;;21.23;10.93;;;;;;;3.18;49.70;101528.19;5007434;28;20037;-20
2022/03/12 07:57:28;;;;;;;14.55;8.52;;;;;;;2.27;51.22;101533.34;4991505;28;20064;-21
2022/03/12 07:59:54;;;;;;;18.52;10.48;;;;;;;1.98;51.06;101528.69;5008784;28;20504;-21
2022/03/12 08:02:20;;;;;;;16.30;8.05;;;;;;;1.79;52.20;101539.03;5008730;28;20033;-21
2022/03/12 08:04:45;;;;;;;15.27;7.72;;;;;;;1.57;53.29;101535.53;5007724;28;20022;-20
2022/03/12 08:07:11;;;;;;;12.25;6.47;;;;;;;1.51;54.40;101527.28;4991177;28;20482;-20
2022/03/12 08:09:36;;;;;;;18.80;9.23;;;;;;;1.39;55.87;101537.03;5008613;28;20045;-22
2022/03/12 08:12:02;;;;;;;15.73;7.72;;;;;;;1.33;56.88;101538.34;5007505;28;20040;-22
2022/03/12 08:14:28;;;;;;;12.93;6.97;;;;;;;1.19;56.73;101521.03;5027940;28;20060;-21
2022/03/12 08:16:54;;;;;;;12.70;6.15;;;;;;;1.38;55.17;101541.44;5028086;28;20486;-20
2022/03/12 08:19:20;;;;;;;11.00;5.72;;;;;;;1.65;55.60;101536.72;4994461;28;20041;-20
2022/03/12 08:21:46;;;;;;;11.98;6.25;;;;;;;1.64;51.16;101540.31;5010630;28;20029;-21
2022/03/12 08:24:15;;;;;;;9.15;5.25;;;;;;;1.57;51.93;101545.19;5010621;28;20030;-21
2022/03/12 08:26:42;;;;;;;8.98;5.75;;;;;;;1.61;52.65;101541.38;5028337;28;20029;-21
2022/03/12 08:29:10;;;;;;;13.27;7.32;;;;;;;1.97;53.90;101536.72;4994318;28;20470;-20
2022/03/12 08:31:37;;;;;;;12.70;6.60;;;;;;;1.94;51.90;101535.16;5009753;28;20025;-20
2022/03/12 08:34:03;;;;;;;17.10;8.20;;;;;;;2.00;52.30;101533.81;5027981;28;20051;-20
2022/03/12 08:36:28;;;;;;;14.63;7.47;;;;;;;1.79;52.35;101542.50;5028116;28;20401;-21
2022/03/12 08:38:54;;;;;;;16.30;7.70;;;;;;;1.73;51.35;101519.34;5027635;28;20021;-21
2022/03/12 08:41:20;;;;;;;19.45;9.85;;;;;;;1.74;55.43;101552.56;5010405;28;20419;-21
2022/03/12 08:43:47;;;;;;;22.25;13.57;;;;;;;1.70;56.61;101545.06;5027911;28;20037;-22
2022/03/12 08:46:12;;;;;;;16.15;8.70;;;;;;;2.13;52.18;101546.81;5010284;28;20033;-20
2022/03/12 08:48:39;;;;;;;13.38;7.20;;;;;;;2.39;51.69;101548.09;5027978;28;20034;-21
2022/03/12 08:51:05;;;;;;;11.93;7.00;;;;;;;2.27;49.99;101537.75;5028136;28;20029;-21
2022/03/12 08:53:30;;;;;;;11.23;6.15;;;;;;;2.13;50.01;101552.06;4994125;28;20044;-21
2022/03/12 08:55:57;;;;;;;10.95;6.97;;;;;;;2.15;50.92;101550.16;5027883;28;20041;-20
2022/03/12 08:58:23;;;;;;;14.32;8.77;;;;;;;2.04;51.43;101543.13;5009826;28;20057;-21
2022/03/12 09:00:52;;;;;;;11.88;6.55;;;;;;;2.16;50.03;101543.91;5027579;28;20029;-20
2022/03/12 09:03:18;;;;;;;11.45;6.43;;;;;;;2.01;48.22;101544.22;5027903;28;20047;-20
2022/03/12 09:05:43;;;;;;;10.05;5.80;;;;;;;2.06;47.67;101545.63;4993397;28;20034;-20
2022/03/12 09:08:09;;;;;;;13.07;7.03;;;;;;;2.58;51.75;101544.72;5027766;28;20095;-21
2022/03/12 09:10:34;;;;;;;11.20;5.85;;;;;;;2.25;44.84;101530.00;5027378;28;20048;-21
2022/03/12 09:13:00;;;;;;;11.13;6.07;;;;;;;2.07;46.45;101547.31;5027474;28;20057;-21
2022/03/12 09:15:25;;;;;;;20.73;11.73;;;;;;;1.95;50.88;101549.16;5010284;28;20048;-21
2022/03/12 09:17:51;;;;;;;15.00;8.50;;;;;;;1.95;46.49;101528.94;5027701;28;20034;-21
2022/03/12 09:20:17;;;;;;;9.80;4.72;;;;;;;2.09;47.84;101550.66;5009715;28;20105;-21
2022/03/12 09:22:42;;;;;;;15.38;8.43;;;;;;;2.09;48.27;101546.22;5009836;28;20041;-21
2022/03/12 09:25:12;;;;;;;24.17;11.93;;;;;;;2.24;46.88;101533.56;5027312;28;20044;-21
2022/03/12 09:27:38;;;;;;;11.20;5.90;;;;;;;2.04;47.33;101522.06;5027193;28;20035;-21
2022/03/12 09:30:04;;;;;;;11.73;6.15;;;;;;;2.36;48.47;101532.53;5027530;28;20068;-21
2022/03/12 09:32:30;;;;;;;12.50;6.95;;;;;;;1.70;46.87;101524.03;5027129;28;20088;-21
2022/03/12 09:34:55;;;;;;;11.95;6.30;;;;;;;2.12;46.86;101524.06;5026983;28;20033;-21
2022/03/12 09:37:21;;;;;;;12.65;6.88;;;;;;;2.77;46.14;101533.44;5027468;28;20037;-21
2022/03/12 09:39:46;;;;;;;12.60;7.72;;;;;;;3.16;44.25;101535.41;5027274;28;20052;-21
2022/03/12 09:42:12;;;;;;;12.88;7.80;;;;;;;2.87;44.37;101530.88;5027151;28;20107;-20
2022/03/12 09:44:37;;;;;;;9.85;6.55;;;;;;;2.70;40.22;101529.69;5029647;28;20406;-21
2022/03/12 09:47:03;;;;;;;10.32;6.00;;;;;;;2.97;44.52;101525.63;5013460;28;20033;-21
2022/03/12 09:49:29;;;;;;;11.60;5.75;;;;;;;2.50;42.50;101518.22;5013368;28;20063;-20
2022/03/12 09:51:57;;;;;;;10.52;6.63;;;;;;;2.11;43.41;101501.34;5031167;28;20048;-21
2022/03/12 09:54:23;;;;;;;12.45;6.95;;;;;;;2.54;41.04;101524.06;5031001;28;20021;-21
2022/03/12 09:56:48;;;;;;;22.70;13.40;;;;;;;2.69;41.26;101521.91;5030594;28;20497;-21
2022/03/12 09:59:14;;;;;;;12.63;5.95;;;;;;;2.13;41.10;101525.75;5013110;28;20029;-26
2022/03/12 10:01:39;;;;;;;15.75;5.10;;;;;;;2.72;43.77;101527.75;5031021;28;20064;-21
2022/03/12 10:04:05;;;;;;;14.27;8.13;;;;;;;3.60;42.02;101534.13;5013058;28;20472;-21
2022/03/12 10:06:31;;;;;;;23.15;13.18;;;;;;;3.88;40.01;101536.91;5013176;28;20037;-21
2022/03/12 10:08:57;;;;;;;26.45;17.85;;;;;;;3.22;40.50;101534.88;5012641;28;20030;-21
2022/03/12 10:11:22;;;;;;;12.57;7.55;;;;;;;3.08;41.44;101541.34;5030388;28;20394;-21
2022/03/12 10:13:48;;;;;;;26.15;9.82;;;;;;;1.24;43.61;101527.72;5030769;28;20116;-21
2022/03/12 10:16:14;;;;;;;15.27;6.43;;;;;;;1.01;46.66;101538.25;5012741;28;20026;-20
2022/03/12 10:18:41;;;;;;;23.55;8.05;;;;;;;2.01;46.52;101533.69;5030625;28;20034;-21
2022/03/12 10:21:07;;;;;;;31.15;9.77;;;;;;;2.61;44.73;101535.72;5030409;28;20063;-20
2022/03/12 10:23:33;;;;;;;18.90;10.48;;;;;;;2.77;44.86;101535.25;5030735;28;20041;-21
2022/03/12 10:25:59;;;;;;;38.30;22.40;;;;;;;2.64;44.91;101529.38;5030294;28;20148;-21
2022/03/12 10:28:25;;;;;;;11.40;6.05;;;;;;;1.88;42.95;101532.19;5030703;28;20537;-20
2022/03/12 10:30:50;;;;;;;11.07;7.15;;;;;;;2.55;43.26;101518.66;5030751;28;20458;-21
2022/03/12 10:33:23;;;;;;;18.52;8.95;;;;;;;2.58;43.95;101518.41;5030521;28;20549;-20
2022/03/12 10:35:49;;;;;;;11.20;6.20;;;;;;;2.23;43.66;101518.75;5030454;28;20021;-21
2022/03/12 10:38:15;;;;;;;14.07;7.07;;;;;;;2.02;44.44;101524.00;5030250;28;20040;-20
2022/03/12 10:40:41;;;;;;;23.73;11.45;;;;;;;2.37;44.60;101499.13;5012529;28;20036;-21
2022/03/12 10:43:13;;;;;;;25.95;14.90;;;;;;;2.79;43.53;101513.06;5028998;28;20113;-20
2022/03/12 10:45:43;;;;;;;16.00;10.43;;;;;;;2.96;43.80;101506.38;5012489;28;20477;-21
2022/03/12 10:48:09;;;;;;;10.73;6.70;;;;;;;3.19;43.92;101514.06;5029760;28;20037;-21
2022/03/12 10:50:44;;;;;;;14.43;9.90;;;;;;;3.10;42.31;101509.59;5011607;28;20030;-21
2022/03/12 10:53:10;;;;;;;20.08;8.05;;;;;;;3.39;43.59;101504.38;4979048;28;20033;-22
2022/03/12 10:55:38;;;;;;;647.15;306.80;;;;;;;3.49;40.80;101505.22;5012072;28;20033;-21
2022/03/12 10:58:11;;;;;;;23.25;15.73;;;;;;;3.70;41.88;101506.88;5029850;28;20073;-20
2022/03/12 11:01:02;;;;;;;48.75;24.33;;;;;;;4.04;42.96;101494.09;5029996;28;20029;-21
2022/03/12 11:03:29;;;;;;;17.67;12.48;;;;;;;3.75;44.57;101491.50;5028964;28;20041;-20
2022/03/12 11:05:56;;;;;;;11.82;7.13;;;;;;;3.76;43.60;101486.09;5012020;28;20119;-20
2022/03/12 11:08:26;;;;;;;12.02;6.05;;;;;;;3.57;37.95;101489.53;5011803;28;20044;-20
2022/03/12 11:10:51;;;;;;;15.57;10.70;;;;;;;3.65;39.69;101493.28;5029293;28;20033;-20
2022/03/12 11:13:42;;;;;;;12.73;7.22;;;;;;;3.42;43.00;101496.19;5029553;28;20057;-20